sensor_id;sensor_type;location;lat;lon;timestamp;P1;durP1;ratioP1;P2;durP2;ratioP2
13163;SDS011;6647;53.688;10.746;2022-07-10T00:00:03;5.65;;;1.20;;
13163;SDS011;6647;53.688;10.746;2022-07-10T00:01:26;3.92;;;1.65;;
13163;SDS011;6647;53.688;10.746;2022-07-10T00:02:47;5.68;;;1.45;;
13163;SDS011;6647;53.688;10.746;2022-07-10T00:04:08;11.77;;;1.25;;
13163;SDS011;6647;53.688;10.746;2022-07-10T00:05:29;5.00;;;1.15;;
13163;SDS011;6647;53.688;10.746;2022-07-10T00:06:50;3.35;;;1.13;;
13163;SDS011;6647;53.688;10.746;2022-07-10T00:08:11;3.85;;;1.52;;
13163;SDS011;6647;53.688;10.746;2022-07-10T00:09:31;13.45;;;1.60;;
13163;SDS011;6647;53.688;10.746;2022-07-10T00:10:53;6.03;;;1.08;;
13163;SDS011;6647;53.688;10.746;2022-07-10T00:12:14;5.53;;;0.95;;
13163;SDS011;6647;53.688;10.746;2022-07-10T00:13:35;10.00;;;1.00;;
13163;SDS011;6647;53.688;10.746;2022-07-10T00:14:56;7.85;;;1.10;;
13163;SDS011;6647;53.688;10.746;2022-07-10T00:16:17;5.10;;;1.10;;
13163;SDS011;6647;53.688;10.746;2022-07-10T00:17:38;5.00;;;1.17;;
13163;SDS011;6647;53.688;10.746;2022-07-10T00:18:59;4.13;;;1.38;;
13163;SDS011;6647;53.688;10.746;2022-07-10T00:20:20;7.70;;;1.20;;
13163;SDS011;6647;53.688;10.746;2022-07-10T00:21:41;6.13;;;1.55;;
13163;SDS011;6647;53.688;10.746;2022-07-10T00:23:02;5.68;;;1.50;;
13163;SDS011;6647;53.688;10.746;2022-07-10T00:24:23;6.95;;;1.15;;
13163;SDS011;6647;53.688;10.746;2022-07-10T00:25:44;5.32;;;1.20;;
13163;SDS011;6647;53.688;10.746;2022-07-10T00:27:05;8.00;;;1.40;;
13163;SDS011;6647;53.688;10.746;2022-07-10T00:28:25;4.25;;;0.95;;
13163;SDS011;6647;53.688;10.746;2022-07-10T00:29:46;7.70;;;1.10;;
13163;SDS011;6647;53.688;10.746;2022-07-10T00:31:07;6.10;;;1.50;;
13163;SDS011;6647;53.688;10.746;2022-07-10T00:32:31;3.30;;;0.75;;
13163;SDS011;6647;53.688;10.746;2022-07-10T00:33:51;7.20;;;1.42;;
13163;SDS011;6647;53.688;10.746;2022-07-10T00:35:12;4.85;;;1.00;;
13163;SDS011;6647;53.688;10.746;2022-07-10T00:36:33;6.63;;;1.02;;
13163;SDS011;6647;53.688;10.746;2022-07-10T00:37:54;4.60;;;1.20;;
13163;SDS011;6647;53.688;10.746;2022-07-10T00:39:15;9.70;;;1.10;;
13163;SDS011;6647;53.688;10.746;2022-07-10T00:40:36;3.65;;;1.00;;
13163;SDS011;6647;53.688;10.746;2022-07-10T00:42:07;2.42;;;0.88;;
13163;SDS011;6647;53.688;10.746;2022-07-10T00:43:51;9.32;;;1.58;;
13163;SDS011;6647;53.688;10.746;2022-07-10T00:45:15;4.00;;;1.15;;
13163;SDS011;6647;53.688;10.746;2022-07-10T00:46:37;4.45;;;1.35;;
13163;SDS011;6647;53.688;10.746;2022-07-10T00:47:58;8.35;;;1.40;;
13163;SDS011;6647;53.688;10.746;2022-07-10T00:49:18;10.40;;;1.25;;
13163;SDS011;6647;53.688;10.746;2022-07-10T00:50:40;3.80;;;0.90;;
13163;SDS011;6647;53.688;10.746;2022-07-10T00:52:08;5.30;;;1.10;;
13163;SDS011;6647;53.688;10.746;2022-07-10T00:53:32;5.75;;;1.42;;
13163;SDS011;6647;53.688;10.746;2022-07-10T00:54:53;3.50;;;1.05;;
13163;SDS011;6647;53.688;10.746;2022-07-10T00:56:15;8.85;;;1.20;;
13163;SDS011;6647;53.688;10.746;2022-07-10T00:57:37;8.38;;;1.17;;
13163;SDS011;6647;53.688;10.746;2022-07-10T00:58:59;6.70;;;1.55;;
13163;SDS011;6647;53.688;10.746;2022-07-10T01:00:21;3.83;;;1.20;;
13163;SDS011;6647;53.688;10.746;2022-07-10T01:01:44;7.68;;;1.35;;
13163;SDS011;6647;53.688;10.746;2022-07-10T01:03:05;5.32;;;1.20;;
13163;SDS011;6647;53.688;10.746;2022-07-10T01:04:26;1.80;;;1.20;;
13163;SDS011;6647;53.688;10.746;2022-07-10T01:05:47;6.38;;;0.80;;
13163;SDS011;6647;53.688;10.746;2022-07-10T01:07:07;6.57;;;1.20;;
13163;SDS011;6647;53.688;10.746;2022-07-10T01:08:28;11.70;;;1.30;;
13163;SDS011;6647;53.688;10.746;2022-07-10T01:09:49;6.45;;;1.17;;
13163;SDS011;6647;53.688;10.746;2022-07-10T01:11:10;3.42;;;0.98;;
13163;SDS011;6647;53.688;10.746;2022-07-10T01:12:33;9.13;;;1.50;;
13163;SDS011;6647;53.688;10.746;2022-07-10T01:13:54;4.75;;;1.20;;
13163;SDS011;6647;53.688;10.746;2022-07-10T01:15:15;4.88;;;1.00;;
13163;SDS011;6647;53.688;10.746;2022-07-10T01:16:36;8.13;;;1.83;;
13163;SDS011;6647;53.688;10.746;2022-07-10T01:17:57;6.13;;;1.40;;
13163;SDS011;6647;53.688;10.746;2022-07-10T01:19:18;2.80;;;0.80;;
13163;SDS011;6647;53.688;10.746;2022-07-10T01:20:40;2.95;;;1.10;;
13163;SDS011;6647;53.688;10.746;2022-07-10T01:22:01;3.15;;;1.00;;
13163;SDS011;6647;53.688;10.746;2022-07-10T01:23:22;6.10;;;1.30;;
13163;SDS011;6647;53.688;10.746;2022-07-10T01:24:43;5.97;;;1.00;;
13163;SDS011;6647;53.688;10.746;2022-07-10T01:26:04;4.03;;;1.25;;
13163;SDS011;6647;53.688;10.746;2022-07-10T01:27:25;2.97;;;1.00;;
13163;SDS011;6647;53.688;10.746;2022-07-10T01:28:47;15.93;;;1.50;;
13163;SDS011;6647;53.688;10.746;2022-07-10T01:30:09;8.55;;;1.27;;
13163;SDS011;6647;53.688;10.746;2022-07-10T01:31:30;4.25;;;1.55;;
13163;SDS011;6647;53.688;10.746;2022-07-10T01:32:52;6.43;;;1.08;;
13163;SDS011;6647;53.688;10.746;2022-07-10T01:34:13;7.13;;;1.27;;
13163;SDS011;6647;53.688;10.746;2022-07-10T01:35:34;11.85;;;1.30;;
13163;SDS011;6647;53.688;10.746;2022-07-10T01:36:55;4.40;;;1.13;;
13163;SDS011;6647;53.688;10.746;2022-07-10T01:38:16;9.68;;;1.38;;
13163;SDS011;6647;53.688;10.746;2022-07-10T01:39:37;2.65;;;0.90;;
13163;SDS011;6647;53.688;10.746;2022-07-10T01:40:58;14.35;;;1.25;;
13163;SDS011;6647;53.688;10.746;2022-07-10T01:42:18;9.85;;;1.25;;
13163;SDS011;6647;53.688;10.746;2022-07-10T01:43:39;3.30;;;1.10;;
13163;SDS011;6647;53.688;10.746;2022-07-10T01:45:08;6.03;;;1.27;;
13163;SDS011;6647;53.688;10.746;2022-07-10T01:46:29;5.85;;;1.20;;
13163;SDS011;6647;53.688;10.746;2022-07-10T01:47:50;11.05;;;1.55;;
13163;SDS011;6647;53.688;10.746;2022-07-10T01:49:11;8.43;;;1.38;;
13163;SDS011;6647;53.688;10.746;2022-07-10T01:50:33;5.90;;;1.30;;
13163;SDS011;6647;53.688;10.746;2022-07-10T01:51:54;6.80;;;1.20;;
13163;SDS011;6647;53.688;10.746;2022-07-10T01:53:14;9.13;;;1.02;;
13163;SDS011;6647;53.688;10.746;2022-07-10T01:54:35;11.73;;;1.45;;
13163;SDS011;6647;53.688;10.746;2022-07-10T01:55:56;11.73;;;1.75;;
13163;SDS011;6647;53.688;10.746;2022-07-10T01:57:18;5.80;;;1.38;;
13163;SDS011;6647;53.688;10.746;2022-07-10T01:58:39;7.45;;;0.93;;
13163;SDS011;6647;53.688;10.746;2022-07-10T02:00:00;6.57;;;1.48;;
13163;SDS011;6647;53.688;10.746;2022-07-10T02:01:21;6.40;;;1.15;;
13163;SDS011;6647;53.688;10.746;2022-07-10T02:02:42;5.97;;;1.20;;
13163;SDS011;6647;53.688;10.746;2022-07-10T02:04:23;7.88;;;1.50;;
13163;SDS011;6647;53.688;10.746;2022-07-10T02:06:02;6.35;;;1.17;;
13163;SDS011;6647;53.688;10.746;2022-07-10T02:07:23;3.10;;;1.15;;
13163;SDS011;6647;53.688;10.746;2022-07-10T02:08:46;11.43;;;1.48;;
13163;SDS011;6647;53.688;10.746;2022-07-10T02:10:07;6.70;;;1.83;;
13163;SDS011;6647;53.688;10.746;2022-07-10T02:11:28;5.78;;;1.30;;
13163;SDS011;6647;53.688;10.746;2022-07-10T02:12:51;4.63;;;1.55;;
13163;SDS011;6647;53.688;10.746;2022-07-10T02:14:12;4.88;;;1.38;;
13163;SDS011;6647;53.688;10.746;2022-07-10T02:15:33;5.45;;;1.02;;
13163;SDS011;6647;53.688;10.746;2022-07-10T02:16:54;5.22;;;1.30;;
13163;SDS011;6647;53.688;10.746;2022-07-10T02:18:16;8.73;;;1.25;;
13163;SDS011;6647;53.688;10.746;2022-07-10T02:19:36;4.45;;;1.38;;
13163;SDS011;6647;53.688;10.746;2022-07-10T02:20:57;6.00;;;1.20;;
13163;SDS011;6647;53.688;10.746;2022-07-10T02:22:18;6.03;;;1.17;;
13163;SDS011;6647;53.688;10.746;2022-07-10T02:23:39;4.63;;;1.15;;
13163;SDS011;6647;53.688;10.746;2022-07-10T02:25:01;9.60;;;1.60;;
13163;SDS011;6647;53.688;10.746;2022-07-10T02:26:22;6.78;;;1.77;;
13163;SDS011;6647;53.688;10.746;2022-07-10T02:27:42;7.78;;;1.65;;
13163;SDS011;6647;53.688;10.746;2022-07-10T02:29:03;11.40;;;1.67;;
13163;SDS011;6647;53.688;10.746;2022-07-10T02:30:24;6.70;;;1.30;;
13163;SDS011;6647;53.688;10.746;2022-07-10T02:31:45;10.65;;;1.67;;
13163;SDS011;6647;53.688;10.746;2022-07-10T02:33:06;5.28;;;1.42;;
13163;SDS011;6647;53.688;10.746;2022-07-10T02:34:27;9.40;;;1.60;;
13163;SDS011;6647;53.688;10.746;2022-07-10T02:35:47;7.30;;;1.48;;
13163;SDS011;6647;53.688;10.746;2022-07-10T02:37:08;7.82;;;1.70;;
13163;SDS011;6647;53.688;10.746;2022-07-10T02:38:29;12.38;;;1.95;;
13163;SDS011;6647;53.688;10.746;2022-07-10T02:39:50;9.98;;;2.30;;
13163;SDS011;6647;53.688;10.746;2022-07-10T02:41:11;7.25;;;1.95;;
13163;SDS011;6647;53.688;10.746;2022-07-10T02:42:32;7.30;;;2.55;;
13163;SDS011;6647;53.688;10.746;2022-07-10T02:43:53;7.38;;;1.85;;
13163;SDS011;6647;53.688;10.746;2022-07-10T02:45:14;6.35;;;1.88;;
13163;SDS011;6647;53.688;10.746;2022-07-10T02:46:35;7.55;;;1.50;;
13163;SDS011;6647;53.688;10.746;2022-07-10T02:47:56;4.65;;;1.63;;
13163;SDS011;6647;53.688;10.746;2022-07-10T02:49:16;6.35;;;1.50;;
13163;SDS011;6647;53.688;10.746;2022-07-10T02:50:37;9.57;;;1.73;;
13163;SDS011;6647;53.688;10.746;2022-07-10T02:51:58;7.90;;;1.90;;
13163;SDS011;6647;53.688;10.746;2022-07-10T02:53:19;7.65;;;1.42;;
13163;SDS011;6647;53.688;10.746;2022-07-10T02:54:40;17.92;;;2.20;;
13163;SDS011;6647;53.688;10.746;2022-07-10T02:56:01;6.10;;;1.65;;
13163;SDS011;6647;53.688;10.746;2022-07-10T02:57:22;11.18;;;1.73;;
13163;SDS011;6647;53.688;10.746;2022-07-10T02:58:43;8.32;;;1.98;;
13163;SDS011;6647;53.688;10.746;2022-07-10T03:00:04;8.10;;;1.45;;
13163;SDS011;6647;53.688;10.746;2022-07-10T03:01:25;10.90;;;2.58;;
13163;SDS011;6647;53.688;10.746;2022-07-10T03:02:46;7.80;;;1.70;;
13163;SDS011;6647;53.688;10.746;2022-07-10T03:04:07;9.32;;;2.03;;
13163;SDS011;6647;53.688;10.746;2022-07-10T03:05:28;14.73;;;2.72;;
13163;SDS011;6647;53.688;10.746;2022-07-10T03:06:49;11.13;;;2.35;;
13163;SDS011;6647;53.688;10.746;2022-07-10T03:08:10;10.25;;;1.80;;
13163;SDS011;6647;53.688;10.746;2022-07-10T03:09:31;16.13;;;2.20;;
13163;SDS011;6647;53.688;10.746;2022-07-10T03:10:52;9.02;;;1.90;;
13163;SDS011;6647;53.688;10.746;2022-07-10T03:12:13;18.85;;;2.35;;
13163;SDS011;6647;53.688;10.746;2022-07-10T03:13:33;12.27;;;1.98;;
13163;SDS011;6647;53.688;10.746;2022-07-10T03:14:54;16.40;;;3.17;;
13163;SDS011;6647;53.688;10.746;2022-07-10T03:16:15;6.63;;;1.58;;
13163;SDS011;6647;53.688;10.746;2022-07-10T03:17:36;10.63;;;1.90;;
13163;SDS011;6647;53.688;10.746;2022-07-10T03:18:57;11.35;;;2.30;;
13163;SDS011;6647;53.688;10.746;2022-07-10T03:20:18;8.25;;;2.15;;
13163;SDS011;6647;53.688;10.746;2022-07-10T03:21:39;6.15;;;1.65;;
13163;SDS011;6647;53.688;10.746;2022-07-10T03:23:00;13.52;;;2.30;;
13163;SDS011;6647;53.688;10.746;2022-07-10T03:24:20;17.73;;;3.55;;
13163;SDS011;6647;53.688;10.746;2022-07-10T03:25:41;23.58;;;3.17;;
13163;SDS011;6647;53.688;10.746;2022-07-10T03:27:02;11.32;;;2.25;;
13163;SDS011;6647;53.688;10.746;2022-07-10T03:28:25;9.38;;;2.40;;
13163;SDS011;6647;53.688;10.746;2022-07-10T03:29:46;14.57;;;2.42;;
13163;SDS011;6647;53.688;10.746;2022-07-10T03:31:07;13.30;;;2.50;;
13163;SDS011;6647;53.688;10.746;2022-07-10T03:32:28;15.68;;;3.08;;
13163;SDS011;6647;53.688;10.746;2022-07-10T03:33:49;9.68;;;2.42;;
13163;SDS011;6647;53.688;10.746;2022-07-10T03:35:09;8.02;;;2.35;;
13163;SDS011;6647;53.688;10.746;2022-07-10T03:36:30;10.98;;;2.50;;
13163;SDS011;6647;53.688;10.746;2022-07-10T03:37:51;14.07;;;2.53;;
13163;SDS011;6647;53.688;10.746;2022-07-10T03:39:12;17.05;;;2.83;;
13163;SDS011;6647;53.688;10.746;2022-07-10T03:40:33;12.80;;;2.38;;
13163;SDS011;6647;53.688;10.746;2022-07-10T03:41:54;14.50;;;2.20;;
13163;SDS011;6647;53.688;10.746;2022-07-10T03:43:15;8.48;;;2.40;;
13163;SDS011;6647;53.688;10.746;2022-07-10T03:44:36;10.23;;;3.03;;
13163;SDS011;6647;53.688;10.746;2022-07-10T03:45:57;10.55;;;2.20;;
13163;SDS011;6647;53.688;10.746;2022-07-10T03:47:18;12.50;;;2.35;;
13163;SDS011;6647;53.688;10.746;2022-07-10T03:48:39;13.05;;;2.72;;
13163;SDS011;6647;53.688;10.746;2022-07-10T03:50:00;11.27;;;2.05;;
13163;SDS011;6647;53.688;10.746;2022-07-10T03:51:22;14.02;;;2.30;;
13163;SDS011;6647;53.688;10.746;2022-07-10T03:52:43;9.98;;;1.92;;
13163;SDS011;6647;53.688;10.746;2022-07-10T03:54:04;24.40;;;3.53;;
13163;SDS011;6647;53.688;10.746;2022-07-10T03:55:25;10.82;;;2.63;;
13163;SDS011;6647;53.688;10.746;2022-07-10T03:56:46;12.10;;;2.67;;
13163;SDS011;6647;53.688;10.746;2022-07-10T03:58:25;18.42;;;2.95;;
13163;SDS011;6647;53.688;10.746;2022-07-10T03:59:46;14.50;;;3.17;;
13163;SDS011;6647;53.688;10.746;2022-07-10T04:01:07;16.67;;;2.90;;
13163;SDS011;6647;53.688;10.746;2022-07-10T04:02:28;17.42;;;2.92;;
13163;SDS011;6647;53.688;10.746;2022-07-10T04:03:49;15.38;;;2.40;;
13163;SDS011;6647;53.688;10.746;2022-07-10T04:05:10;9.57;;;2.25;;
13163;SDS011;6647;53.688;10.746;2022-07-10T04:06:31;14.18;;;3.22;;
13163;SDS011;6647;53.688;10.746;2022-07-10T04:07:52;19.40;;;2.75;;
13163;SDS011;6647;53.688;10.746;2022-07-10T04:09:13;17.27;;;3.78;;
13163;SDS011;6647;53.688;10.746;2022-07-10T04:10:34;14.52;;;2.70;;
13163;SDS011;6647;53.688;10.746;2022-07-10T04:11:55;10.23;;;2.72;;
13163;SDS011;6647;53.688;10.746;2022-07-10T04:13:15;13.18;;;2.92;;
13163;SDS011;6647;53.688;10.746;2022-07-10T04:14:36;9.55;;;2.47;;
13163;SDS011;6647;53.688;10.746;2022-07-10T04:15:57;12.68;;;2.35;;
13163;SDS011;6647;53.688;10.746;2022-07-10T04:17:18;11.07;;;2.15;;
13163;SDS011;6647;53.688;10.746;2022-07-10T04:18:39;12.88;;;2.97;;
13163;SDS011;6647;53.688;10.746;2022-07-10T04:20:00;16.95;;;2.72;;
13163;SDS011;6647;53.688;10.746;2022-07-10T04:21:21;14.10;;;2.65;;
13163;SDS011;6647;53.688;10.746;2022-07-10T04:22:42;18.88;;;2.63;;
13163;SDS011;6647;53.688;10.746;2022-07-10T04:24:03;14.93;;;2.50;;
13163;SDS011;6647;53.688;10.746;2022-07-10T04:25:24;13.77;;;2.90;;
13163;SDS011;6647;53.688;10.746;2022-07-10T04:26:45;14.18;;;2.90;;
13163;SDS011;6647;53.688;10.746;2022-07-10T04:28:06;12.43;;;3.00;;
13163;SDS011;6647;53.688;10.746;2022-07-10T04:29:27;11.98;;;3.00;;
13163;SDS011;6647;53.688;10.746;2022-07-10T04:30:48;21.50;;;3.72;;
13163;SDS011;6647;53.688;10.746;2022-07-10T04:32:09;22.50;;;3.15;;
13163;SDS011;6647;53.688;10.746;2022-07-10T04:33:30;14.88;;;2.70;;
13163;SDS011;6647;53.688;10.746;2022-07-10T04:34:51;12.93;;;2.55;;
13163;SDS011;6647;53.688;10.746;2022-07-10T04:36:12;14.23;;;3.30;;
13163;SDS011;6647;53.688;10.746;2022-07-10T04:37:33;12.65;;;3.40;;
13163;SDS011;6647;53.688;10.746;2022-07-10T04:38:54;15.05;;;2.75;;
13163;SDS011;6647;53.688;10.746;2022-07-10T04:40:15;25.88;;;3.63;;
13163;SDS011;6647;53.688;10.746;2022-07-10T04:41:36;18.58;;;3.50;;
13163;SDS011;6647;53.688;10.746;2022-07-10T04:42:57;17.08;;;2.83;;
13163;SDS011;6647;53.688;10.746;2022-07-10T04:44:18;13.82;;;2.92;;
13163;SDS011;6647;53.688;10.746;2022-07-10T04:45:39;18.30;;;3.13;;
13163;SDS011;6647;53.688;10.746;2022-07-10T04:47:00;10.13;;;2.80;;
13163;SDS011;6647;53.688;10.746;2022-07-10T04:48:21;12.55;;;2.78;;
13163;SDS011;6647;53.688;10.746;2022-07-10T04:49:42;23.25;;;3.35;;
13163;SDS011;6647;53.688;10.746;2022-07-10T04:51:02;27.13;;;3.47;;
13163;SDS011;6647;53.688;10.746;2022-07-10T04:52:23;19.73;;;3.72;;
13163;SDS011;6647;53.688;10.746;2022-07-10T04:53:44;14.63;;;2.72;;
13163;SDS011;6647;53.688;10.746;2022-07-10T04:55:05;17.77;;;2.75;;
13163;SDS011;6647;53.688;10.746;2022-07-10T04:56:27;17.77;;;3.38;;
13163;SDS011;6647;53.688;10.746;2022-07-10T04:57:48;18.35;;;3.60;;
13163;SDS011;6647;53.688;10.746;2022-07-10T04:59:09;21.83;;;3.63;;
13163;SDS011;6647;53.688;10.746;2022-07-10T05:00:30;14.77;;;2.25;;
13163;SDS011;6647;53.688;10.746;2022-07-10T05:01:51;12.75;;;2.67;;
13163;SDS011;6647;53.688;10.746;2022-07-10T05:03:12;12.65;;;3.30;;
13163;SDS011;6647;53.688;10.746;2022-07-10T05:04:33;24.75;;;2.95;;
13163;SDS011;6647;53.688;10.746;2022-07-10T05:05:54;14.75;;;3.50;;
13163;SDS011;6647;53.688;10.746;2022-07-10T05:07:14;14.38;;;2.63;;
13163;SDS011;6647;53.688;10.746;2022-07-10T05:08:35;17.20;;;3.00;;
13163;SDS011;6647;53.688;10.746;2022-07-10T05:09:56;19.90;;;3.63;;
13163;SDS011;6647;53.688;10.746;2022-07-10T05:11:17;12.30;;;3.42;;
13163;SDS011;6647;53.688;10.746;2022-07-10T05:12:38;13.85;;;3.05;;
13163;SDS011;6647;53.688;10.746;2022-07-10T05:13:59;14.70;;;3.03;;
13163;SDS011;6647;53.688;10.746;2022-07-10T05:15:20;19.20;;;2.95;;
13163;SDS011;6647;53.688;10.746;2022-07-10T05:16:41;26.17;;;3.90;;
13163;SDS011;6647;53.688;10.746;2022-07-10T05:18:01;12.65;;;2.60;;
13163;SDS011;6647;53.688;10.746;2022-07-10T05:19:22;15.65;;;3.30;;
13163;SDS011;6647;53.688;10.746;2022-07-10T05:20:43;15.82;;;3.72;;
13163;SDS011;6647;53.688;10.746;2022-07-10T05:22:05;20.23;;;2.75;;
13163;SDS011;6647;53.688;10.746;2022-07-10T05:23:26;17.75;;;2.42;;
13163;SDS011;6647;53.688;10.746;2022-07-10T05:24:47;21.40;;;2.72;;
13163;SDS011;6647;53.688;10.746;2022-07-10T05:26:08;20.02;;;3.17;;
13163;SDS011;6647;53.688;10.746;2022-07-10T05:27:29;7.07;;;2.60;;
13163;SDS011;6647;53.688;10.746;2022-07-10T05:28:50;17.33;;;3.35;;
13163;SDS011;6647;53.688;10.746;2022-07-10T05:30:10;15.65;;;2.90;;
13163;SDS011;6647;53.688;10.746;2022-07-10T05:31:31;14.88;;;2.50;;
13163;SDS011;6647;53.688;10.746;2022-07-10T05:32:52;18.67;;;3.90;;
13163;SDS011;6647;53.688;10.746;2022-07-10T05:34:13;16.85;;;3.33;;
13163;SDS011;6647;53.688;10.746;2022-07-10T05:35:34;24.63;;;3.55;;
13163;SDS011;6647;53.688;10.746;2022-07-10T05:36:55;15.85;;;2.22;;
13163;SDS011;6647;53.688;10.746;2022-07-10T05:38:16;25.65;;;3.30;;
13163;SDS011;6647;53.688;10.746;2022-07-10T05:39:37;19.30;;;2.88;;
13163;SDS011;6647;53.688;10.746;2022-07-10T05:40:58;20.77;;;3.25;;
13163;SDS011;6647;53.688;10.746;2022-07-10T05:42:19;14.65;;;2.90;;
13163;SDS011;6647;53.688;10.746;2022-07-10T05:43:40;20.95;;;2.85;;
13163;SDS011;6647;53.688;10.746;2022-07-10T05:45:01;23.90;;;3.40;;
13163;SDS011;6647;53.688;10.746;2022-07-10T05:46:22;18.17;;;2.70;;
13163;SDS011;6647;53.688;10.746;2022-07-10T05:47:43;14.15;;;2.40;;
13163;SDS011;6647;53.688;10.746;2022-07-10T05:49:05;16.42;;;2.70;;
13163;SDS011;6647;53.688;10.746;2022-07-10T05:50:25;11.52;;;2.70;;
13163;SDS011;6647;53.688;10.746;2022-07-10T05:51:46;15.38;;;2.95;;
13163;SDS011;6647;53.688;10.746;2022-07-10T05:53:07;20.20;;;2.45;;
13163;SDS011;6647;53.688;10.746;2022-07-10T05:54:28;15.93;;;2.50;;
13163;SDS011;6647;53.688;10.746;2022-07-10T05:55:49;15.05;;;2.85;;
13163;SDS011;6647;53.688;10.746;2022-07-10T05:57:10;18.38;;;3.20;;
13163;SDS011;6647;53.688;10.746;2022-07-10T05:58:31;16.48;;;2.65;;
13163;SDS011;6647;53.688;10.746;2022-07-10T05:59:52;11.50;;;2.42;;
13163;SDS011;6647;53.688;10.746;2022-07-10T06:01:13;21.23;;;2.88;;
13163;SDS011;6647;53.688;10.746;2022-07-10T06:02:34;18.60;;;2.45;;
13163;SDS011;6647;53.688;10.746;2022-07-10T06:03:55;9.57;;;2.05;;
13163;SDS011;6647;53.688;10.746;2022-07-10T06:05:16;9.07;;;1.80;;
13163;SDS011;6647;53.688;10.746;2022-07-10T06:06:36;14.80;;;2.20;;
13163;SDS011;6647;53.688;10.746;2022-07-10T06:07:57;12.80;;;2.88;;
13163;SDS011;6647;53.688;10.746;2022-07-10T06:09:18;7.43;;;1.95;;
13163;SDS011;6647;53.688;10.746;2022-07-10T06:10:39;11.05;;;2.22;;
13163;SDS011;6647;53.688;10.746;2022-07-10T06:12:00;16.58;;;2.47;;
13163;SDS011;6647;53.688;10.746;2022-07-10T06:13:21;9.05;;;2.45;;
13163;SDS011;6647;53.688;10.746;2022-07-10T06:14:42;14.52;;;2.38;;
13163;SDS011;6647;53.688;10.746;2022-07-10T06:16:03;15.35;;;2.10;;
13163;SDS011;6647;53.688;10.746;2022-07-10T06:17:25;8.30;;;1.63;;
13163;SDS011;6647;53.688;10.746;2022-07-10T06:18:46;18.88;;;2.45;;
13163;SDS011;6647;53.688;10.746;2022-07-10T06:20:07;16.05;;;2.15;;
13163;SDS011;6647;53.688;10.746;2022-07-10T06:21:28;10.85;;;2.60;;
13163;SDS011;6647;53.688;10.746;2022-07-10T06:22:49;24.25;;;2.50;;
13163;SDS011;6647;53.688;10.746;2022-07-10T06:24:10;12.13;;;1.90;;
13163;SDS011;6647;53.688;10.746;2022-07-10T06:25:31;11.45;;;2.03;;
13163;SDS011;6647;53.688;10.746;2022-07-10T06:26:52;14.82;;;2.33;;
13163;SDS011;6647;53.688;10.746;2022-07-10T06:28:13;11.68;;;1.70;;
13163;SDS011;6647;53.688;10.746;2022-07-10T06:29:33;10.38;;;2.40;;
13163;SDS011;6647;53.688;10.746;2022-07-10T06:30:54;11.73;;;2.17;;
13163;SDS011;6647;53.688;10.746;2022-07-10T06:32:16;12.23;;;2.55;;
13163;SDS011;6647;53.688;10.746;2022-07-10T06:33:37;8.90;;;1.83;;
13163;SDS011;6647;53.688;10.746;2022-07-10T06:34:58;12.52;;;1.95;;
13163;SDS011;6647;53.688;10.746;2022-07-10T06:36:19;8.63;;;2.10;;
13163;SDS011;6647;53.688;10.746;2022-07-10T06:37:40;13.20;;;2.65;;
13163;SDS011;6647;53.688;10.746;2022-07-10T06:39:00;13.38;;;2.40;;
13163;SDS011;6647;53.688;10.746;2022-07-10T06:40:21;16.83;;;3.28;;
13163;SDS011;6647;53.688;10.746;2022-07-10T06:41:43;15.90;;;1.83;;
13163;SDS011;6647;53.688;10.746;2022-07-10T06:43:04;7.90;;;1.90;;
13163;SDS011;6647;53.688;10.746;2022-07-10T06:44:24;12.60;;;2.50;;
13163;SDS011;6647;53.688;10.746;2022-07-10T06:45:45;12.73;;;2.53;;
13163;SDS011;6647;53.688;10.746;2022-07-10T06:47:07;14.32;;;2.47;;
13163;SDS011;6647;53.688;10.746;2022-07-10T06:48:47;13.93;;;2.60;;
13163;SDS011;6647;53.688;10.746;2022-07-10T06:50:08;12.90;;;2.17;;
13163;SDS011;6647;53.688;10.746;2022-07-10T06:51:30;10.70;;;2.00;;
13163;SDS011;6647;53.688;10.746;2022-07-10T06:52:51;13.52;;;2.60;;
13163;SDS011;6647;53.688;10.746;2022-07-10T06:54:12;14.35;;;2.45;;
13163;SDS011;6647;53.688;10.746;2022-07-10T06:55:33;11.23;;;2.38;;
13163;SDS011;6647;53.688;10.746;2022-07-10T06:56:54;12.48;;;2.22;;
13163;SDS011;6647;53.688;10.746;2022-07-10T06:58:15;13.75;;;2.75;;
13163;SDS011;6647;53.688;10.746;2022-07-10T06:59:36;19.70;;;2.70;;
13163;SDS011;6647;53.688;10.746;2022-07-10T07:00:57;13.88;;;2.20;;
13163;SDS011;6647;53.688;10.746;2022-07-10T07:02:19;14.93;;;2.53;;
13163;SDS011;6647;53.688;10.746;2022-07-10T07:03:39;12.25;;;2.50;;
13163;SDS011;6647;53.688;10.746;2022-07-10T07:05:01;17.48;;;2.53;;
13163;SDS011;6647;53.688;10.746;2022-07-10T07:06:22;10.35;;;2.53;;
13163;SDS011;6647;53.688;10.746;2022-07-10T07:07:43;16.92;;;2.38;;
13163;SDS011;6647;53.688;10.746;2022-07-10T07:09:04;11.75;;;2.03;;
13163;SDS011;6647;53.688;10.746;2022-07-10T07:10:25;13.18;;;2.53;;
13163;SDS011;6647;53.688;10.746;2022-07-10T07:11:45;10.48;;;2.67;;
13163;SDS011;6647;53.688;10.746;2022-07-10T07:13:06;15.57;;;3.17;;
13163;SDS011;6647;53.688;10.746;2022-07-10T07:14:29;13.75;;;2.10;;
13163;SDS011;6647;53.688;10.746;2022-07-10T07:15:50;13.65;;;2.38;;
13163;SDS011;6647;53.688;10.746;2022-07-10T07:17:20;13.63;;;2.38;;
13163;SDS011;6647;53.688;10.746;2022-07-10T07:18:42;10.93;;;3.17;;
13163;SDS011;6647;53.688;10.746;2022-07-10T07:20:09;21.30;;;2.60;;
13163;SDS011;6647;53.688;10.746;2022-07-10T07:21:48;7.03;;;1.40;;
13163;SDS011;6647;53.688;10.746;2022-07-10T07:23:28;8.05;;;1.63;;
13163;SDS011;6647;53.688;10.746;2022-07-10T07:24:49;10.82;;;2.30;;
13163;SDS011;6647;53.688;10.746;2022-07-10T07:26:10;8.57;;;1.63;;
13163;SDS011;6647;53.688;10.746;2022-07-10T07:27:31;21.77;;;2.25;;
13163;SDS011;6647;53.688;10.746;2022-07-10T07:28:53;13.38;;;2.78;;
13163;SDS011;6647;53.688;10.746;2022-07-10T07:30:14;18.00;;;2.05;;
13163;SDS011;6647;53.688;10.746;2022-07-10T07:31:35;15.07;;;2.08;;
13163;SDS011;6647;53.688;10.746;2022-07-10T07:32:56;12.25;;;1.90;;
13163;SDS011;6647;53.688;10.746;2022-07-10T07:34:17;12.20;;;2.00;;
13163;SDS011;6647;53.688;10.746;2022-07-10T07:35:38;8.85;;;1.77;;
13163;SDS011;6647;53.688;10.746;2022-07-10T07:36:59;11.95;;;2.28;;
13163;SDS011;6647;53.688;10.746;2022-07-10T07:38:20;9.38;;;1.67;;
13163;SDS011;6647;53.688;10.746;2022-07-10T07:39:41;7.68;;;1.60;;
13163;SDS011;6647;53.688;10.746;2022-07-10T07:41:02;8.75;;;2.30;;
13163;SDS011;6647;53.688;10.746;2022-07-10T07:42:23;11.35;;;2.25;;
13163;SDS011;6647;53.688;10.746;2022-07-10T07:43:44;11.88;;;1.77;;
13163;SDS011;6647;53.688;10.746;2022-07-10T07:45:05;11.23;;;1.95;;
13163;SDS011;6647;53.688;10.746;2022-07-10T07:46:26;15.85;;;2.33;;
13163;SDS011;6647;53.688;10.746;2022-07-10T07:47:51;12.35;;;2.42;;
13163;SDS011;6647;53.688;10.746;2022-07-10T07:49:15;9.60;;;1.50;;
13163;SDS011;6647;53.688;10.746;2022-07-10T07:50:36;8.63;;;2.15;;
13163;SDS011;6647;53.688;10.746;2022-07-10T07:51:57;16.63;;;2.30;;
13163;SDS011;6647;53.688;10.746;2022-07-10T07:53:18;19.98;;;1.85;;
13163;SDS011;6647;53.688;10.746;2022-07-10T07:54:39;5.68;;;1.55;;
13163;SDS011;6647;53.688;10.746;2022-07-10T07:56:00;9.65;;;2.33;;
13163;SDS011;6647;53.688;10.746;2022-07-10T07:57:21;12.98;;;2.75;;
13163;SDS011;6647;53.688;10.746;2022-07-10T07:58:42;13.40;;;2.70;;
13163;SDS011;6647;53.688;10.746;2022-07-10T08:00:04;12.32;;;2.28;;
13163;SDS011;6647;53.688;10.746;2022-07-10T08:01:26;11.68;;;2.45;;
13163;SDS011;6647;53.688;10.746;2022-07-10T08:02:49;13.63;;;2.30;;
13163;SDS011;6647;53.688;10.746;2022-07-10T08:04:10;10.02;;;1.90;;
13163;SDS011;6647;53.688;10.746;2022-07-10T08:05:31;9.45;;;2.10;;
13163;SDS011;6647;53.688;10.746;2022-07-10T08:06:52;12.80;;;3.03;;